Kurumoch International Airport
UWWW : now visible

Airfield :











YOU CAN JOIN US ON...

 
LOGIN :

Register | Disclaimer

   EN    FR    IT 

 









Legend :    VFR   Marginal VFR   IFR   Intensive IFR   Very Intensive IFR
Visi :
Ceiling :
>= 8 km
>= 3000ft
5 to 8 km
1000 to 3000 ft
1500m to 5 km
500 to 1000 ft
800 to 1500m
200 to 500 ft
< 800m
< 200 ft
Symbols :   Thunderstorms  Fog  Heavy snow  Heavy precipitations  Wind > 20 kt







- Airport Elevation : 477 ft
- IATA code : KUF


UWWW - Kurumoch International

CURRENT METAR :
  • 180600Z 32007MPS 7000 -SN BKN011 M01/M02 Q0984 R33/550540 NOSIG RMK QFE728/0971

EXPIRED METARs :
  • 180530Z 32006MPS 3000 -SN BKN010 M01/M02 Q0984 R33/550540 NOSIG RMK QFE728/0971
  • 180500Z 31005MPS 7000 -SN BKN011 M01/M03 Q0984 R33/550540 NOSIG RMK QFE728/0970
  • 180430Z 31005MPS 9999 BKN013 M02/M03 Q0984 R33/550540 NOSIG RMK QFE727/0970
  • 180400Z 31005MPS 9999 BKN010 M02/M03 Q0984 R33/550540 NOSIG RMK QFE727/0970
  • 180330Z 31005MPS 9999 -SN BKN009 M01/M03 Q0984 R33/550540 NOSIG RMK QFE727/0970

TAF TAF UWWW
Valid from the 18 at 06:00 until the 19 at 06:00 UTC


180500Z 1806/1906 33008G14MPS 3100 -SN BLSN BKN011 TX00/1810Z TNM11/1903Z
TEMPO 1806/1812 34014G19MPS 0500 +SHSN FZRA BKN003 BKN007CB
FM181200 34010G16MPS 3100 -SN BLSN OVC011
TEMPO 1812/1906 35016G22MPS 1000 SN BKN007
UWWW FIR / Europe



MET'MAP, your aeronautical weather chart ! - Copyright ORBIFLY December 2007 - Disclaimer

ORBIFLY MET'MAP TEAM :

Programming & Development : Alexandra Zaïnal
Concept & Development : Baudouin d'Aumeries
Co-Development & Prog : Marc-Olivier Méhu
Technical & hardware support : Manuel Goepfert

Contact : metmap@orbifly.com




SOURCES & CREDITS :

   NOAA       Earth
Advisory